sensor_id;sensor_type;location;lat;lon;timestamp;temperature;humidity
67054;SHT31;53960;51.826;5.850;2023-04-01T00:00:05;10.84;91.46
67054;SHT31;53960;51.826;5.850;2023-04-01T00:02:31;10.83;91.43
67054;SHT31;53960;51.826;5.850;2023-04-01T00:04:57;10.85;91.63
67054;SHT31;53960;51.826;5.850;2023-04-01T00:07:22;10.83;91.46
67054;SHT31;53960;51.826;5.850;2023-04-01T00:09:48;10.83;91.60
67054;SHT31;53960;51.826;5.850;2023-04-01T00:12:13;10.83;91.57
67054;SHT31;53960;51.826;5.850;2023-04-01T00:14:38;10.84;91.45
67054;SHT31;53960;51.826;5.850;2023-04-01T00:17:05;10.81;91.52
67054;SHT31;53960;51.826;5.850;2023-04-01T00:19:30;10.79;91.64
67054;SHT31;53960;51.826;5.850;2023-04-01T00:21:56;10.77;91.88
67054;SHT31;53960;51.826;5.850;2023-04-01T00:24:22;10.81;91.80
67054;SHT31;53960;51.826;5.850;2023-04-01T00:26:47;10.83;91.70
67054;SHT31;53960;51.826;5.850;2023-04-01T00:29:13;10.84;91.44
67054;SHT31;53960;51.826;5.850;2023-04-01T00:31:38;10.87;91.47
67054;SHT31;53960;51.826;5.850;2023-04-01T00:34:03;10.89;91.37
67054;SHT31;53960;51.826;5.850;2023-04-01T00:36:29;10.93;91.13
67054;SHT31;53960;51.826;5.850;2023-04-01T00:38:54;10.85;91.27
67054;SHT31;53960;51.826;5.850;2023-04-01T00:41:20;10.87;91.45
67054;SHT31;53960;51.826;5.850;2023-04-01T00:43:48;10.87;91.44
67054;SHT31;53960;51.826;5.850;2023-04-01T00:46:15;10.87;91.48
67054;SHT31;53960;51.826;5.850;2023-04-01T00:48:44;10.84;91.69
67054;SHT31;53960;51.826;5.850;2023-04-01T00:51:27;10.83;91.64
67054;SHT31;53960;51.826;5.850;2023-04-01T00:53:55;10.87;91.68
67054;SHT31;53960;51.826;5.850;2023-04-01T00:56:24;10.83;91.85
67054;SHT31;53960;51.826;5.850;2023-04-01T00:58:56;10.89;91.79
67054;SHT31;53960;51.826;5.850;2023-04-01T01:01:23;10.85;91.62
67054;SHT31;53960;51.826;5.850;2023-04-01T01:03:49;10.84;91.72
67054;SHT31;53960;51.826;5.850;2023-04-01T01:06:26;10.90;91.54
67054;SHT31;53960;51.826;5.850;2023-04-01T01:11:29;10.92;91.41
67054;SHT31;53960;51.826;5.850;2023-04-01T01:14:02;10.90;91.48
67054;SHT31;53960;51.826;5.850;2023-04-01T01:16:34;10.85;91.54
67054;SHT31;53960;51.826;5.850;2023-04-01T01:19:14;10.87;91.72
67054;SHT31;53960;51.826;5.850;2023-04-01T01:21:53;10.89;91.70
67054;SHT31;53960;51.826;5.850;2023-04-01T01:27:16;10.92;91.52
67054;SHT31;53960;51.826;5.850;2023-04-01T01:32:57;10.89;91.62
67054;SHT31;53960;51.826;5.850;2023-04-01T01:35:57;10.94;91.47
67054;SHT31;53960;51.826;5.850;2023-04-01T01:38:28;10.97;91.42
67054;SHT31;53960;51.826;5.850;2023-04-01T01:40:55;10.89;91.71
67054;SHT31;53960;51.826;5.850;2023-04-01T01:43:25;10.90;91.84
67054;SHT31;53960;51.826;5.850;2023-04-01T01:45:55;10.93;91.71
67054;SHT31;53960;51.826;5.850;2023-04-01T01:48:23;10.89;91.72
67054;SHT31;53960;51.826;5.850;2023-04-01T01:50:49;10.96;91.42
67054;SHT31;53960;51.826;5.850;2023-04-01T01:53:15;10.97;91.47
67054;SHT31;53960;51.826;5.850;2023-04-01T01:55:44;10.90;91.66
67054;SHT31;53960;51.826;5.850;2023-04-01T01:58:18;10.90;91.89
67054;SHT31;53960;51.826;5.850;2023-04-01T02:01:05;10.92;91.78
67054;SHT31;53960;51.826;5.850;2023-04-01T02:03:34;10.92;91.79
67054;SHT31;53960;51.826;5.850;2023-04-01T02:06:02;10.90;91.70
67054;SHT31;53960;51.826;5.850;2023-04-01T02:08:47;10.89;91.91
67054;SHT31;53960;51.826;5.850;2023-04-01T02:11:19;10.87;91.93
67054;SHT31;53960;51.826;5.850;2023-04-01T02:14:03;10.85;92.03
67054;SHT31;53960;51.826;5.850;2023-04-01T02:16:39;10.85;92.13
67054;SHT31;53960;51.826;5.850;2023-04-01T02:19:06;10.92;91.75
67054;SHT31;53960;51.826;5.850;2023-04-01T02:21:35;10.85;91.85
67054;SHT31;53960;51.826;5.850;2023-04-01T02:24:04;10.89;91.91
67054;SHT31;53960;51.826;5.850;2023-04-01T02:26:30;10.87;91.99
67054;SHT31;53960;51.826;5.850;2023-04-01T02:28:57;10.84;91.80
67054;SHT31;53960;51.826;5.850;2023-04-01T02:31:25;10.90;91.45
67054;SHT31;53960;51.826;5.850;2023-04-01T02:33:50;10.87;91.07
67054;SHT31;53960;51.826;5.850;2023-04-01T02:36:17;10.87;91.07
67054;SHT31;53960;51.826;5.850;2023-04-01T02:38:44;10.81;91.40
67054;SHT31;53960;51.826;5.850;2023-04-01T02:41:10;10.79;91.77
67054;SHT31;53960;51.826;5.850;2023-04-01T02:43:35;10.83;91.82
67054;SHT31;53960;51.826;5.850;2023-04-01T02:46:00;10.77;91.94
67054;SHT31;53960;51.826;5.850;2023-04-01T02:48:27;10.79;92.05
67054;SHT31;53960;51.826;5.850;2023-04-01T02:50:53;10.79;92.05
67054;SHT31;53960;51.826;5.850;2023-04-01T02:53:18;10.80;92.01
67054;SHT31;53960;51.826;5.850;2023-04-01T02:55:44;10.85;91.84
67054;SHT31;53960;51.826;5.850;2023-04-01T02:58:10;10.81;91.43
67054;SHT31;53960;51.826;5.850;2023-04-01T03:00:35;10.76;91.86
67054;SHT31;53960;51.826;5.850;2023-04-01T03:03:01;10.73;91.92
67054;SHT31;53960;51.826;5.850;2023-04-01T03:05:28;10.69;92.04
67054;SHT31;53960;51.826;5.850;2023-04-01T03:07:53;10.74;92.13
67054;SHT31;53960;51.826;5.850;2023-04-01T03:10:18;10.72;91.80
67054;SHT31;53960;51.826;5.850;2023-04-01T03:12:44;10.72;91.89
67054;SHT31;53960;51.826;5.850;2023-04-01T03:15:10;10.70;91.78
67054;SHT31;53960;51.826;5.850;2023-04-01T03:17:36;10.74;91.81
67054;SHT31;53960;51.826;5.850;2023-04-01T03:20:02;10.69;91.89
67054;SHT31;53960;51.826;5.850;2023-04-01T03:22:30;10.64;92.01
67054;SHT31;53960;51.826;5.850;2023-04-01T03:24:55;10.69;92.04
67054;SHT31;53960;51.826;5.850;2023-04-01T03:27:21;10.59;92.23
67054;SHT31;53960;51.826;5.850;2023-04-01T03:29:47;10.62;92.16
67054;SHT31;53960;51.826;5.850;2023-04-01T03:32:12;10.62;92.29
67054;SHT31;53960;51.826;5.850;2023-04-01T03:34:37;10.62;92.00
67054;SHT31;53960;51.826;5.850;2023-04-01T03:37:03;10.66;91.61
67054;SHT31;53960;51.826;5.850;2023-04-01T03:39:28;10.56;91.89
67054;SHT31;53960;51.826;5.850;2023-04-01T03:41:53;10.56;92.24
67054;SHT31;53960;51.826;5.850;2023-04-01T03:44:19;10.60;91.90
67054;SHT31;53960;51.826;5.850;2023-04-01T03:46:45;10.57;91.70
67054;SHT31;53960;51.826;5.850;2023-04-01T03:49:10;10.55;91.72
67054;SHT31;53960;51.826;5.850;2023-04-01T03:51:45;10.50;91.76
67054;SHT31;53960;51.826;5.850;2023-04-01T03:54:11;10.49;92.03
67054;SHT31;53960;51.826;5.850;2023-04-01T03:56:37;10.48;92.02
67054;SHT31;53960;51.826;5.850;2023-04-01T03:59:04;10.52;92.03
67054;SHT31;53960;51.826;5.850;2023-04-01T04:01:30;10.49;91.96
67054;SHT31;53960;51.826;5.850;2023-04-01T04:03:56;10.48;92.14
67054;SHT31;53960;51.826;5.850;2023-04-01T04:06:23;10.46;92.17
67054;SHT31;53960;51.826;5.850;2023-04-01T04:08:48;10.55;92.01
67054;SHT31;53960;51.826;5.850;2023-04-01T04:11:14;10.56;91.81
67054;SHT31;53960;51.826;5.850;2023-04-01T04:13:40;10.59;91.56
67054;SHT31;53960;51.826;5.850;2023-04-01T04:16:06;10.53;91.57
67054;SHT31;53960;51.826;5.850;2023-04-01T04:18:32;10.52;91.69
67054;SHT31;53960;51.826;5.850;2023-04-01T04:20:58;10.56;91.66
67054;SHT31;53960;51.826;5.850;2023-04-01T04:23:23;10.49;91.79
67054;SHT31;53960;51.826;5.850;2023-04-01T04:25:58;10.53;91.79
67054;SHT31;53960;51.826;5.850;2023-04-01T04:28:25;10.52;91.82
67054;SHT31;53960;51.826;5.850;2023-04-01T04:30:51;10.50;91.72
67054;SHT31;53960;51.826;5.850;2023-04-01T04:33:16;10.49;91.59
67054;SHT31;53960;51.826;5.850;2023-04-01T04:35:42;10.46;91.86
67054;SHT31;53960;51.826;5.850;2023-04-01T04:38:07;10.45;92.03
67054;SHT31;53960;51.826;5.850;2023-04-01T04:40:32;10.42;92.17
67054;SHT31;53960;51.826;5.850;2023-04-01T04:42:58;10.43;91.71
67054;SHT31;53960;51.826;5.850;2023-04-01T04:45:23;10.43;91.84
67054;SHT31;53960;51.826;5.850;2023-04-01T04:47:48;10.41;91.89
67054;SHT31;53960;51.826;5.850;2023-04-01T04:50:14;10.38;92.07
67054;SHT31;53960;51.826;5.850;2023-04-01T04:52:39;10.42;91.45
67054;SHT31;53960;51.826;5.850;2023-04-01T04:55:05;10.42;91.83
67054;SHT31;53960;51.826;5.850;2023-04-01T04:57:30;10.36;91.87
67054;SHT31;53960;51.826;5.850;2023-04-01T04:59:56;10.35;91.80
67054;SHT31;53960;51.826;5.850;2023-04-01T05:02:21;10.31;92.07
67054;SHT31;53960;51.826;5.850;2023-04-01T05:04:46;10.34;92.24
67054;SHT31;53960;51.826;5.850;2023-04-01T05:07:12;10.32;92.14
67054;SHT31;53960;51.826;5.850;2023-04-01T05:09:37;10.35;91.97
67054;SHT31;53960;51.826;5.850;2023-04-01T05:12:03;10.38;92.05
67054;SHT31;53960;51.826;5.850;2023-04-01T05:14:28;10.34;92.37
67054;SHT31;53960;51.826;5.850;2023-04-01T05:16:53;10.34;92.40
67054;SHT31;53960;51.826;5.850;2023-04-01T05:19:19;10.32;92.39
67054;SHT31;53960;51.826;5.850;2023-04-01T05:21:45;10.29;92.48
67054;SHT31;53960;51.826;5.850;2023-04-01T05:24:10;10.26;92.71
67054;SHT31;53960;51.826;5.850;2023-04-01T05:26:35;10.32;92.66
67054;SHT31;53960;51.826;5.850;2023-04-01T05:29:02;10.32;92.48
67054;SHT31;53960;51.826;5.850;2023-04-01T05:31:28;10.29;92.62
67054;SHT31;53960;51.826;5.850;2023-04-01T05:33:53;10.28;92.86
67054;SHT31;53960;51.826;5.850;2023-04-01T05:36:19;10.32;92.57
67054;SHT31;53960;51.826;5.850;2023-04-01T05:38:44;10.38;92.43
67054;SHT31;53960;51.826;5.850;2023-04-01T05:41:15;10.38;92.31
67054;SHT31;53960;51.826;5.850;2023-04-01T05:43:41;10.39;92.31
67054;SHT31;53960;51.826;5.850;2023-04-01T05:46:07;10.41;92.56
67054;SHT31;53960;51.826;5.850;2023-04-01T05:48:33;10.41;92.80
67054;SHT31;53960;51.826;5.850;2023-04-01T05:51:00;10.43;92.69
67054;SHT31;53960;51.826;5.850;2023-04-01T05:53:25;10.41;92.91
67054;SHT31;53960;51.826;5.850;2023-04-01T05:55:50;10.39;93.05
67054;SHT31;53960;51.826;5.850;2023-04-01T05:58:16;10.39;93.33
67054;SHT31;53960;51.826;5.850;2023-04-01T06:00:41;10.41;93.33
67054;SHT31;53960;51.826;5.850;2023-04-01T06:03:06;10.52;93.07
67054;SHT31;53960;51.826;5.850;2023-04-01T06:05:43;10.45;93.35
67054;SHT31;53960;51.826;5.850;2023-04-01T06:08:11;10.50;93.33
67054;SHT31;53960;51.826;5.850;2023-04-01T06:24:27;10.52;93.88
67054;SHT31;53960;51.826;5.850;2023-04-01T06:30:12;10.48;94.22
67054;SHT31;53960;51.826;5.850;2023-04-01T06:35:56;10.56;94.06
67054;SHT31;53960;51.826;5.850;2023-04-01T06:44:08;10.60;93.95
67054;SHT31;53960;51.826;5.850;2023-04-01T06:46:45;10.66;93.71
67054;SHT31;53960;51.826;5.850;2023-04-01T06:55:40;10.69;93.42
67054;SHT31;53960;51.826;5.850;2023-04-01T06:58:04;10.70;93.70
67054;SHT31;53960;51.826;5.850;2023-04-01T07:00:39;10.74;93.47
67054;SHT31;53960;51.826;5.850;2023-04-01T07:03:23;10.73;93.43
67054;SHT31;53960;51.826;5.850;2023-04-01T07:05:51;10.70;93.49
67054;SHT31;53960;51.826;5.850;2023-04-01T07:08:21;10.69;93.69
67054;SHT31;53960;51.826;5.850;2023-04-01T07:10:55;10.67;93.78
67054;SHT31;53960;51.826;5.850;2023-04-01T07:16:29;10.66;93.75
67054;SHT31;53960;51.826;5.850;2023-04-01T07:19:09;10.66;93.61
67054;SHT31;53960;51.826;5.850;2023-04-01T07:22:04;10.66;93.71
67054;SHT31;53960;51.826;5.850;2023-04-01T07:24:34;10.64;93.83
67054;SHT31;53960;51.826;5.850;2023-04-01T07:27:01;10.64;93.77
67054;SHT31;53960;51.826;5.850;2023-04-01T07:29:26;10.63;93.86
67054;SHT31;53960;51.826;5.850;2023-04-01T07:32:07;10.63;93.58
67054;SHT31;53960;51.826;5.850;2023-04-01T07:34:49;10.62;93.94
67054;SHT31;53960;51.826;5.850;2023-04-01T07:43:22;10.63;93.81
67054;SHT31;53960;51.826;5.850;2023-04-01T07:46:21;10.60;93.80
67054;SHT31;53960;51.826;5.850;2023-04-01T07:49:12;10.63;93.98
67054;SHT31;53960;51.826;5.850;2023-04-01T07:57:43;10.70;93.66
67054;SHT31;53960;51.826;5.850;2023-04-01T08:02:58;10.69;93.21
67054;SHT31;53960;51.826;5.850;2023-04-01T08:06:20;10.66;93.18
67054;SHT31;53960;51.826;5.850;2023-04-01T08:14:14;10.62;93.64
67054;SHT31;53960;51.826;5.850;2023-04-01T08:16:51;10.67;93.72
67054;SHT31;53960;51.826;5.850;2023-04-01T08:21:51;10.69;93.54
67054;SHT31;53960;51.826;5.850;2023-04-01T08:24:41;10.70;93.54
67054;SHT31;53960;51.826;5.850;2023-04-01T08:27:16;10.69;93.87
67054;SHT31;53960;51.826;5.850;2023-04-01T08:29:48;10.72;93.90
67054;SHT31;53960;51.826;5.850;2023-04-01T08:32:19;10.74;94.09
67054;SHT31;53960;51.826;5.850;2023-04-01T08:34:53;10.73;93.73
67054;SHT31;53960;51.826;5.850;2023-04-01T08:37:23;10.72;93.75
67054;SHT31;53960;51.826;5.850;2023-04-01T08:40:31;10.77;93.67
67054;SHT31;53960;51.826;5.850;2023-04-01T08:43:08;10.76;93.86
67054;SHT31;53960;51.826;5.850;2023-04-01T08:48:28;10.76;93.49
67054;SHT31;53960;51.826;5.850;2023-04-01T08:59:57;10.87;93.79
67054;SHT31;53960;51.826;5.850;2023-04-01T09:06:21;10.89;93.83
67054;SHT31;53960;51.826;5.850;2023-04-01T09:12:05;10.96;93.16
67054;SHT31;53960;51.826;5.850;2023-04-01T09:17:40;11.00;93.43
67054;SHT31;53960;51.826;5.850;2023-04-01T09:23:23;10.94;93.72
67054;SHT31;53960;51.826;5.850;2023-04-01T09:37:26;11.13;93.47
67054;SHT31;53960;51.826;5.850;2023-04-01T09:40:30;11.08;93.36
67054;SHT31;53960;51.826;5.850;2023-04-01T09:43:06;11.10;93.42
67054;SHT31;53960;51.826;5.850;2023-04-01T09:46:09;11.08;93.47
67054;SHT31;53960;51.826;5.850;2023-04-01T10:13:57;11.00;93.43
67054;SHT31;53960;51.826;5.850;2023-04-01T10:16:59;11.01;93.42
67054;SHT31;53960;51.826;5.850;2023-04-01T10:22:25;11.03;93.50
67054;SHT31;53960;51.826;5.850;2023-04-01T10:25:19;11.07;93.04
67054;SHT31;53960;51.826;5.850;2023-04-01T10:31:02;11.04;93.74
67054;SHT31;53960;51.826;5.850;2023-04-01T10:36:54;11.14;92.97
67054;SHT31;53960;51.826;5.850;2023-04-01T10:39:34;11.10;93.21
67054;SHT31;53960;51.826;5.850;2023-04-01T10:48:14;11.14;93.05
67054;SHT31;53960;51.826;5.850;2023-04-01T10:53:40;11.11;93.21
67054;SHT31;53960;51.826;5.850;2023-04-01T11:13:39;11.23;93.17
67054;SHT31;53960;51.826;5.850;2023-04-01T11:27:44;11.28;92.96
67054;SHT31;53960;51.826;5.850;2023-04-01T11:30:21;11.32;92.57
67054;SHT31;53960;51.826;5.850;2023-04-01T11:35:59;11.57;92.45
67054;SHT31;53960;51.826;5.850;2023-04-01T11:39:15;11.69;92.30
67054;SHT31;53960;51.826;5.850;2023-04-01T11:42:12;11.86;92.37
67054;SHT31;53960;51.826;5.850;2023-04-01T11:44:40;12.00;92.46
67054;SHT31;53960;51.826;5.850;2023-04-01T11:47:26;12.06;91.93
67054;SHT31;53960;51.826;5.850;2023-04-01T12:04:18;11.76;91.71
67054;SHT31;53960;51.826;5.850;2023-04-01T12:09:52;11.75;92.00
67054;SHT31;53960;51.826;5.850;2023-04-01T12:12:38;11.73;92.01
67054;SHT31;53960;51.826;5.850;2023-04-01T12:29:54;12.10;91.96
67054;SHT31;53960;51.826;5.850;2023-04-01T12:32:41;12.10;91.84
67054;SHT31;53960;51.826;5.850;2023-04-01T12:37:59;11.87;92.06
67054;SHT31;53960;51.826;5.850;2023-04-01T12:40:38;11.81;91.62
67054;SHT31;53960;51.826;5.850;2023-04-01T12:51:47;11.76;91.89
67054;SHT31;53960;51.826;5.850;2023-04-01T13:05:37;11.68;92.00
67054;SHT31;53960;51.826;5.850;2023-04-01T13:17:23;11.57;91.50
67054;SHT31;53960;51.826;5.850;2023-04-01T13:20:02;11.52;91.78
67054;SHT31;53960;51.826;5.850;2023-04-01T13:25:54;11.52;92.10
67054;SHT31;53960;51.826;5.850;2023-04-01T13:28:34;11.52;92.03
67054;SHT31;53960;51.826;5.850;2023-04-01T13:34:09;11.62;91.95
67054;SHT31;53960;51.826;5.850;2023-04-01T13:42:19;11.72;92.12
67054;SHT31;53960;51.826;5.850;2023-04-01T13:59:15;11.76;92.61
67054;SHT31;53960;51.826;5.850;2023-04-01T14:04:47;11.90;92.06
67054;SHT31;53960;51.826;5.850;2023-04-01T14:10:11;11.97;91.58
67054;SHT31;53960;51.826;5.850;2023-04-01T14:12:50;11.94;91.39
67054;SHT31;53960;51.826;5.850;2023-04-01T14:15:37;11.99;91.54
67054;SHT31;53960;51.826;5.850;2023-04-01T14:18:42;11.90;91.17
67054;SHT31;53960;51.826;5.850;2023-04-01T14:32:52;11.76;91.77
67054;SHT31;53960;51.826;5.850;2023-04-01T14:35:28;11.71;91.46
67054;SHT31;53960;51.826;5.850;2023-04-01T14:38:26;11.69;91.69
67054;SHT31;53960;51.826;5.850;2023-04-01T14:41:18;11.66;92.10
67054;SHT31;53960;51.826;5.850;2023-04-01T14:49:41;11.65;92.69
67054;SHT31;53960;51.826;5.850;2023-04-01T14:54:49;11.59;93.20
67054;SHT31;53960;51.826;5.850;2023-04-01T14:57:29;11.61;93.26
67054;SHT31;53960;51.826;5.850;2023-04-01T15:02:42;11.66;93.03
67054;SHT31;53960;51.826;5.850;2023-04-01T15:05:27;11.68;93.19
67054;SHT31;53960;51.826;5.850;2023-04-01T15:08:07;11.73;93.06
67054;SHT31;53960;51.826;5.850;2023-04-01T15:13:48;11.68;93.19
67054;SHT31;53960;51.826;5.850;2023-04-01T15:21:50;11.68;92.91
67054;SHT31;53960;51.826;5.850;2023-04-01T15:24:27;11.71;92.79
67054;SHT31;53960;51.826;5.850;2023-04-01T15:29:52;11.75;92.89
67054;SHT31;53960;51.826;5.850;2023-04-01T15:32:30;11.81;92.61
67054;SHT31;53960;51.826;5.850;2023-04-01T15:37:59;11.89;92.54
67054;SHT31;53960;51.826;5.850;2023-04-01T15:40:38;11.85;92.89
67054;SHT31;53960;51.826;5.850;2023-04-01T15:43:18;11.83;92.89
67054;SHT31;53960;51.826;5.850;2023-04-01T15:51:41;11.94;91.99
67054;SHT31;53960;51.826;5.850;2023-04-01T15:57:41;11.82;91.87
67054;SHT31;53960;51.826;5.850;2023-04-01T16:00:34;11.81;92.05
67054;SHT31;53960;51.826;5.850;2023-04-01T16:09:10;11.82;92.45
67054;SHT31;53960;51.826;5.850;2023-04-01T16:11:52;11.79;92.72
67054;SHT31;53960;51.826;5.850;2023-04-01T16:14:53;11.79;91.88
67054;SHT31;53960;51.826;5.850;2023-04-01T16:19:54;11.69;91.67
67054;SHT31;53960;51.826;5.850;2023-04-01T16:24:53;11.71;91.69
67054;SHT31;53960;51.826;5.850;2023-04-01T16:35:47;11.58;92.74
67054;SHT31;53960;51.826;5.850;2023-04-01T16:41:04;11.51;92.32
67054;SHT31;53960;51.826;5.850;2023-04-01T16:43:44;11.52;92.10
67054;SHT31;53960;51.826;5.850;2023-04-01T16:46:44;11.46;92.35
67054;SHT31;53960;51.826;5.850;2023-04-01T16:51:54;11.41;92.73
67054;SHT31;53960;51.826;5.850;2023-04-01T16:59:38;11.48;92.45
67054;SHT31;53960;51.826;5.850;2023-04-01T17:10:30;11.39;92.90
67054;SHT31;53960;51.826;5.850;2023-04-01T17:16:04;11.32;92.80
67054;SHT31;53960;51.826;5.850;2023-04-01T17:24:32;11.08;92.48
67054;SHT31;53960;51.826;5.850;2023-04-01T17:27:13;11.01;93.04
67054;SHT31;53960;51.826;5.850;2023-04-01T17:30:03;10.94;93.44
67054;SHT31;53960;51.826;5.850;2023-04-01T17:33:04;10.96;93.38
67054;SHT31;53960;51.826;5.850;2023-04-01T17:35:39;10.96;93.39
67054;SHT31;53960;51.826;5.850;2023-04-01T17:41:21;10.93;93.00
67054;SHT31;53960;51.826;5.850;2023-04-01T17:44:15;10.83;92.60
67054;SHT31;53960;51.826;5.850;2023-04-01T17:59:52;10.69;91.94
67054;SHT31;53960;51.826;5.850;2023-04-01T18:07:53;10.55;91.85
67054;SHT31;53960;51.826;5.850;2023-04-01T18:10:38;10.55;92.04
67054;SHT31;53960;51.826;5.850;2023-04-01T18:23:56;10.31;92.31
67054;SHT31;53960;51.826;5.850;2023-04-01T18:26:29;10.24;92.13
67054;SHT31;53960;51.826;5.850;2023-04-01T18:29:01;10.26;92.16
67054;SHT31;53960;51.826;5.850;2023-04-01T18:31:44;10.21;91.60
67054;SHT31;53960;51.826;5.850;2023-04-01T18:37:25;10.08;91.43
67054;SHT31;53960;51.826;5.850;2023-04-01T18:39:57;10.02;91.70
67054;SHT31;53960;51.826;5.850;2023-04-01T18:46:03;9.97;92.09
67054;SHT31;53960;51.826;5.850;2023-04-01T18:51:33;10.05;92.37
67054;SHT31;53960;51.826;5.850;2023-04-01T18:54:11;10.04;91.91
67054;SHT31;53960;51.826;5.850;2023-04-01T18:56:39;10.01;92.01
67054;SHT31;53960;51.826;5.850;2023-04-01T18:59:28;10.04;91.83
67054;SHT31;53960;51.826;5.850;2023-04-01T19:02:20;9.99;91.83
67054;SHT31;53960;51.826;5.850;2023-04-01T19:13:01;9.97;91.95
67054;SHT31;53960;51.826;5.850;2023-04-01T19:18:32;9.84;92.39
67054;SHT31;53960;51.826;5.850;2023-04-01T19:38:12;9.56;92.65
67054;SHT31;53960;51.826;5.850;2023-04-01T19:48:57;9.54;91.77
67054;SHT31;53960;51.826;5.850;2023-04-01T19:54:15;9.48;92.81
67054;SHT31;53960;51.826;5.850;2023-04-01T20:04:49;9.37;93.20
67054;SHT31;53960;51.826;5.850;2023-04-01T20:07:34;9.37;92.72
67054;SHT31;53960;51.826;5.850;2023-04-01T20:15:35;9.32;92.97
67054;SHT31;53960;51.826;5.850;2023-04-01T20:18:18;9.23;92.65
67054;SHT31;53960;51.826;5.850;2023-04-01T20:20:57;9.20;92.48
67054;SHT31;53960;51.826;5.850;2023-04-01T20:23:40;9.16;92.01
67054;SHT31;53960;51.826;5.850;2023-04-01T20:26:14;9.08;92.08
67054;SHT31;53960;51.826;5.850;2023-04-01T20:31:42;9.08;91.94
67054;SHT31;53960;51.826;5.850;2023-04-01T20:36:58;9.08;91.63
67054;SHT31;53960;51.826;5.850;2023-04-01T20:39:47;9.09;91.51
67054;SHT31;53960;51.826;5.850;2023-04-01T20:48:09;9.01;91.53
67054;SHT31;53960;51.826;5.850;2023-04-01T20:50:50;8.91;91.17
67054;SHT31;53960;51.826;5.850;2023-04-01T20:53:20;8.78;91.43
67054;SHT31;53960;51.826;5.850;2023-04-01T21:01:38;8.82;91.41
67054;SHT31;53960;51.826;5.850;2023-04-01T21:04:21;8.81;91.67
67054;SHT31;53960;51.826;5.850;2023-04-01T21:12:11;8.78;91.62
67054;SHT31;53960;51.826;5.850;2023-04-01T21:15:07;8.74;91.84
67054;SHT31;53960;51.826;5.850;2023-04-01T21:20:47;8.68;91.71
67054;SHT31;53960;51.826;5.850;2023-04-01T21:37:24;8.48;91.18
67054;SHT31;53960;51.826;5.850;2023-04-01T21:40:09;8.54;90.90
67054;SHT31;53960;51.826;5.850;2023-04-01T21:42:49;8.53;91.27
67054;SHT31;53960;51.826;5.850;2023-04-01T21:48:15;8.46;90.89
67054;SHT31;53960;51.826;5.850;2023-04-01T21:50:55;8.44;90.86
67054;SHT31;53960;51.826;5.850;2023-04-01T22:02:22;8.44;90.37
67054;SHT31;53960;51.826;5.850;2023-04-01T22:05:07;8.38;90.72
67054;SHT31;53960;51.826;5.850;2023-04-01T22:07:47;8.32;90.48
67054;SHT31;53960;51.826;5.850;2023-04-01T22:10:35;8.20;90.73
67054;SHT31;53960;51.826;5.850;2023-04-01T22:18:33;8.17;90.89
67054;SHT31;53960;51.826;5.850;2023-04-01T22:23:56;8.13;90.55
67054;SHT31;53960;51.826;5.850;2023-04-01T22:26:33;8.19;90.83
67054;SHT31;53960;51.826;5.850;2023-04-01T22:29:16;8.12;90.56
67054;SHT31;53960;51.826;5.850;2023-04-01T22:31:51;8.16;90.36
67054;SHT31;53960;51.826;5.850;2023-04-01T22:37:04;8.10;90.34
67054;SHT31;53960;51.826;5.850;2023-04-01T22:39:47;7.99;89.92
67054;SHT31;53960;51.826;5.850;2023-04-01T22:42:37;7.97;90.11
67054;SHT31;53960;51.826;5.850;2023-04-01T22:48:06;7.90;90.50
67054;SHT31;53960;51.826;5.850;2023-04-01T22:53:57;7.86;90.02
67054;SHT31;53960;51.826;5.850;2023-04-01T22:56:15;7.78;89.77
67054;SHT31;53960;51.826;5.850;2023-04-01T22:59:00;7.74;90.29
67054;SHT31;53960;51.826;5.850;2023-04-01T23:01:29;7.68;90.09
67054;SHT31;53960;51.826;5.850;2023-04-01T23:03:58;7.71;90.01
67054;SHT31;53960;51.826;5.850;2023-04-01T23:06:28;7.66;90.58
67054;SHT31;53960;51.826;5.850;2023-04-01T23:09:15;7.71;90.43
67054;SHT31;53960;51.826;5.850;2023-04-01T23:14:29;7.72;90.20
67054;SHT31;53960;51.826;5.850;2023-04-01T23:17:07;7.69;90.58
67054;SHT31;53960;51.826;5.850;2023-04-01T23:27:56;7.59;90.63
67054;SHT31;53960;51.826;5.850;2023-04-01T23:35:53;7.51;90.53
67054;SHT31;53960;51.826;5.850;2023-04-01T23:38:20;7.47;90.34
67054;SHT31;53960;51.826;5.850;2023-04-01T23:40:52;7.38;90.27
67054;SHT31;53960;51.826;5.850;2023-04-01T23:43:30;7.43;90.39
67054;SHT31;53960;51.826;5.850;2023-04-01T23:45:57;7.35;90.13
67054;SHT31;53960;51.826;5.850;2023-04-01T23:48:28;7.32;90.06
67054;SHT31;53960;51.826;5.850;2023-04-01T23:50:54;7.34;90.12
67054;SHT31;53960;51.826;5.850;2023-04-01T23:53:33;7.34;90.25
67054;SHT31;53960;51.826;5.850;2023-04-01T23:55:59;7.38;90.17
67054;SHT31;53960;51.826;5.850;2023-04-01T23:58:47;7.31;90.36
